createdAt,value
2022-10-10T00:02:00.670Z,83.40
2022-10-10T00:04:30.775Z,82.50
2022-10-10T00:06:59.705Z,82.40
2022-10-10T00:09:28.721Z,82.50
2022-10-10T00:11:57.723Z,82.60
2022-10-10T00:14:29.295Z,82.50
2022-10-10T00:17:01.924Z,83.50
2022-10-10T00:19:30.903Z,82.60
2022-10-10T00:21:59.858Z,82.60
2022-10-10T00:24:28.780Z,82.60
2022-10-10T00:26:57.742Z,82.50
2022-10-10T00:29:26.798Z,82.50
2022-10-10T00:31:55.809Z,82.50
2022-10-10T00:34:26.217Z,82.40
2022-10-10T00:36:55.186Z,82.30
2022-10-10T00:39:24.165Z,82.20
2022-10-10T00:41:53.176Z,82.20
2022-10-10T00:44:22.241Z,82.20
2022-10-10T00:46:51.213Z,82.20
2022-10-10T00:49:24.721Z,82.20
2022-10-10T00:51:58.300Z,82.20
2022-10-10T00:54:29.205Z,82.10
2022-10-10T00:57:03.631Z,82.00
2022-10-10T00:59:34.772Z,81.90
2022-10-10T01:02:05.121Z,81.80
2022-10-10T01:04:39.602Z,81.80
2022-10-10T01:07:17.068Z,81.70
2022-10-10T01:09:47.901Z,81.70
2022-10-10T01:12:23.319Z,81.70
2022-10-10T01:14:59.307Z,81.70
2022-10-10T01:17:34.117Z,81.70
2022-10-10T01:20:26.675Z,81.80
2022-10-10T01:23:16.989Z,81.70
2022-10-10T01:25:59.396Z,81.70
2022-10-10T01:28:40.059Z,81.70
2022-10-10T01:31:11.578Z,81.60
2022-10-10T01:33:53.130Z,81.60
2022-10-10T01:36:28.211Z,81.60
2022-10-10T01:39:03.701Z,81.60
2022-10-10T01:41:37.842Z,81.60
2022-10-10T01:44:08.240Z,81.60
2022-10-10T01:46:37.212Z,81.70
2022-10-10T01:49:06.294Z,81.60
2022-10-10T01:51:49.708Z,81.70
2022-10-10T01:54:33.617Z,81.70
2022-10-10T01:57:17.933Z,81.60
2022-10-10T02:00:06.312Z,81.60
2022-10-10T02:02:42.943Z,81.50
2022-10-10T02:05:21.868Z,81.60
2022-10-10T02:07:55.496Z,81.80
2022-10-10T02:10:28.917Z,81.80
2022-10-10T02:13:00.142Z,81.80
2022-10-10T02:15:34.684Z,81.90
2022-10-10T02:18:06.307Z,81.90
2022-10-10T02:20:35.977Z,81.90
2022-10-10T02:23:06.708Z,81.90
2022-10-10T02:25:40.444Z,81.90
2022-10-10T02:28:14.590Z,81.80
2022-10-10T02:30:47.965Z,81.80
2022-10-10T02:33:20.434Z,81.90
2022-10-10T02:35:51.827Z,81.90
2022-10-10T02:38:21.310Z,82.00
2022-10-10T02:40:51.437Z,82.00
2022-10-10T02:43:21.321Z,81.80
2022-10-10T02:45:51.888Z,81.80
2022-10-10T02:48:20.914Z,81.80
2022-10-10T02:50:50.098Z,81.80
2022-10-10T02:53:19.053Z,81.80
2022-10-10T02:55:48.052Z,81.60
2022-10-10T02:58:17.094Z,81.60
2022-10-10T03:00:46.071Z,81.70
2022-10-10T03:03:16.460Z,81.60
2022-10-10T03:05:47.009Z,82.60
2022-10-10T03:08:16.169Z,81.80
2022-10-10T03:10:56.153Z,81.80
2022-10-10T03:13:25.785Z,81.90
2022-10-10T03:15:55.014Z,82.00
2022-10-10T03:18:25.542Z,81.90
2022-10-10T03:20:56.141Z,81.90
2022-10-10T03:23:26.236Z,82.00
2022-10-10T03:25:55.218Z,82.00
2022-10-10T03:28:24.217Z,82.00
2022-10-10T03:30:53.248Z,82.00
2022-10-10T03:33:22.452Z,82.10
2022-10-10T03:35:52.974Z,82.00
2022-10-10T03:38:21.929Z,82.00
2022-10-10T03:40:50.991Z,82.00
2022-10-10T03:43:19.951Z,82.10
2022-10-10T03:45:49.093Z,82.10
2022-10-10T03:48:18.685Z,82.00
2022-10-10T03:50:47.653Z,82.00
2022-10-10T03:53:18.010Z,82.20
2022-10-10T03:55:46.973Z,82.20
2022-10-10T03:58:18.054Z,82.10
2022-10-10T04:00:55.880Z,82.30
2022-10-10T04:03:25.694Z,82.30
2022-10-10T04:05:55.235Z,82.30
2022-10-10T04:08:25.832Z,82.40
2022-10-10T04:10:55.867Z,82.40
2022-10-10T04:13:28.154Z,82.40
2022-10-10T04:15:58.107Z,82.40
2022-10-10T04:18:27.180Z,82.50
2022-10-10T04:20:56.110Z,82.40
2022-10-10T04:23:26.492Z,82.20
2022-10-10T04:25:55.425Z,82.20
2022-10-10T04:28:24.399Z,82.20
2022-10-10T04:30:53.400Z,82.20
2022-10-10T04:33:22.424Z,82.40
2022-10-10T04:35:51.480Z,82.40
2022-10-10T04:38:21.422Z,82.40
2022-10-10T04:40:52.090Z,82.40
2022-10-10T04:43:21.060Z,82.40
2022-10-10T04:45:50.051Z,82.40
2022-10-10T04:48:19.050Z,82.40
2022-10-10T04:50:53.688Z,82.40
2022-10-10T04:53:23.000Z,82.30
2022-10-10T04:55:53.902Z,82.40
2022-10-10T04:58:23.257Z,82.50
2022-10-10T05:00:53.868Z,82.60
2022-10-10T05:03:23.509Z,82.70
2022-10-10T05:05:52.581Z,82.80
2022-10-10T05:08:22.053Z,82.90
2022-10-10T05:10:54.735Z,83.00
2022-10-10T05:13:23.752Z,83.20
2022-10-10T05:15:53.274Z,83.30
2022-10-10T05:18:22.985Z,83.30
2022-10-10T05:20:52.015Z,83.30
2022-10-10T05:23:20.995Z,83.40
2022-10-10T05:25:51.474Z,83.50
2022-10-10T05:28:21.973Z,83.50
2022-10-10T05:30:52.237Z,83.50
2022-10-10T05:33:21.247Z,83.50
2022-10-10T05:35:50.230Z,83.40
2022-10-10T05:38:19.218Z,83.40
2022-10-10T05:40:48.215Z,83.40
2022-10-10T05:43:17.199Z,83.40
2022-10-10T05:45:47.529Z,83.40
2022-10-10T05:48:16.469Z,83.50
2022-10-10T05:50:49.399Z,83.60
2022-10-10T05:53:19.375Z,84.30
2022-10-10T05:55:48.574Z,83.70
2022-10-10T05:58:17.783Z,83.80
2022-10-10T06:00:48.892Z,83.80
2022-10-10T06:03:18.221Z,83.80
2022-10-10T06:05:49.591Z,83.80
2022-10-10T06:08:18.353Z,83.80
2022-10-10T06:10:47.915Z,83.80
2022-10-10T06:13:23.899Z,83.60
2022-10-10T06:15:55.131Z,83.70
2022-10-10T06:18:24.132Z,83.80
2022-10-10T06:20:53.226Z,84.00
2022-10-10T06:23:22.603Z,83.80
2022-10-10T06:25:53.475Z,83.80
2022-10-10T06:28:23.035Z,83.90
2022-10-10T06:30:52.838Z,84.00
2022-10-10T06:33:23.186Z,84.00
2022-10-10T06:35:52.159Z,84.00
2022-10-10T06:38:21.157Z,84.00
2022-10-10T06:40:50.146Z,84.00
2022-10-10T06:43:19.188Z,84.10
2022-10-10T06:45:50.909Z,84.10
2022-10-10T06:48:19.988Z,84.90
2022-10-10T06:50:59.768Z,84.00
2022-10-10T06:53:29.117Z,84.00
2022-10-10T06:55:58.431Z,84.00
2022-10-10T06:58:29.207Z,84.10
2022-10-10T07:01:01.071Z,84.20
2022-10-10T07:03:31.248Z,84.30
2022-10-10T07:06:03.404Z,84.40
2022-10-10T07:08:32.773Z,84.40
2022-10-10T07:11:02.461Z,84.40
2022-10-10T07:13:31.853Z,84.40
2022-10-10T07:16:00.981Z,84.30
2022-10-10T07:18:29.941Z,84.30
2022-10-10T07:20:59.779Z,84.30
2022-10-10T07:23:31.335Z,84.30
2022-10-10T07:26:02.476Z,84.20
2022-10-10T07:28:31.475Z,84.20
2022-10-10T07:31:02.453Z,84.10
2022-10-10T07:33:35.479Z,84.10
2022-10-10T07:36:04.542Z,84.20
2022-10-10T07:38:35.329Z,84.20
2022-10-10T07:41:07.636Z,84.20
2022-10-10T07:43:37.417Z,84.20
2022-10-10T07:46:09.718Z,84.20
2022-10-10T07:48:41.117Z,84.30
2022-10-10T07:51:10.605Z,84.20
2022-10-10T07:53:41.509Z,84.10
2022-10-10T07:56:11.358Z,84.00
2022-10-10T07:58:40.663Z,84.00
2022-10-10T08:01:11.845Z,83.70
2022-10-10T08:03:41.714Z,83.50
2022-10-10T08:06:12.123Z,83.30
2022-10-10T08:08:50.849Z,83.20
2022-10-10T08:11:22.250Z,83.10
2022-10-10T08:13:51.988Z,82.90
2022-10-10T08:16:21.635Z,82.70
2022-10-10T08:18:50.665Z,82.50
2022-10-10T08:21:19.951Z,82.50
2022-10-10T08:23:51.099Z,82.40
2022-10-10T08:26:21.088Z,82.10
2022-10-10T08:28:50.207Z,82.00
2022-10-10T08:31:21.181Z,81.80
2022-10-10T08:33:51.777Z,81.70
2022-10-10T08:36:23.992Z,81.60
2022-10-10T08:38:57.518Z,81.50
2022-10-10T08:41:39.068Z,81.30
2022-10-10T08:44:16.646Z,81.20
2022-10-10T08:46:50.099Z,81.10
2022-10-10T08:49:26.043Z,81.00
2022-10-10T08:52:02.485Z,80.90
2022-10-10T08:54:35.295Z,80.70
2022-10-10T08:57:07.221Z,80.50
2022-10-10T08:59:40.025Z,80.30
2022-10-10T09:02:54.677Z,80.20
2022-10-10T09:05:22.083Z,80.10
2022-10-10T09:08:13.304Z,80.00
2022-10-10T09:10:54.627Z,79.80
2022-10-10T09:13:28.708Z,79.80
2022-10-10T09:16:01.161Z,79.70
2022-10-10T09:18:44.293Z,79.50
2022-10-10T09:21:17.315Z,79.10
2022-10-10T09:23:52.238Z,78.80
2022-10-10T09:26:27.196Z,78.60
2022-10-10T09:29:03.088Z,78.30
2022-10-10T09:31:36.323Z,78.20
2022-10-10T09:34:12.689Z,77.90
2022-10-10T09:36:41.893Z,77.70
2022-10-10T09:39:18.463Z,77.40
2022-10-10T09:41:55.888Z,77.20
2022-10-10T09:44:25.080Z,77.00
2022-10-10T09:46:55.242Z,76.90
2022-10-10T09:49:24.195Z,76.70
2022-10-10T09:51:53.484Z,76.50
2022-10-10T09:54:23.304Z,76.20
2022-10-10T09:56:56.732Z,76.20
2022-10-10T09:59:40.341Z,76.10
2022-10-10T10:02:18.588Z,75.80
2022-10-10T10:04:48.201Z,75.70
2022-10-10T10:07:25.408Z,75.60
2022-10-10T10:09:56.424Z,75.20
2022-10-10T10:12:29.505Z,75.00
2022-10-10T10:15:06.251Z,74.90
2022-10-10T10:17:35.364Z,74.80
2022-10-10T10:20:10.063Z,74.60
2022-10-10T10:22:40.516Z,74.40
2022-10-10T10:25:32.773Z,74.20
2022-10-10T10:28:20.974Z,74.00
2022-10-10T10:30:53.090Z,73.90
2022-10-10T10:33:44.557Z,73.90
2022-10-10T10:36:25.237Z,73.80
2022-10-10T10:38:58.790Z,74.00
2022-10-10T10:41:34.510Z,73.90
2022-10-10T10:44:20.655Z,73.80
2022-10-10T10:47:01.181Z,73.70
2022-10-10T10:49:36.734Z,73.60
2022-10-10T10:52:21.277Z,73.60
2022-10-10T10:55:15.768Z,73.40
2022-10-10T10:58:37.076Z,73.30
2022-10-10T11:01:20.904Z,73.20
2022-10-10T11:05:15.784Z,73.10
2022-10-10T11:07:17.978Z,73.10
2022-10-10T11:09:55.127Z,73.00
2022-10-10T11:12:39.826Z,72.90
2022-10-10T11:15:16.478Z,72.60
2022-10-10T11:17:50.460Z,72.00
2022-10-10T11:20:26.977Z,71.90
2022-10-10T11:23:04.201Z,71.60
2022-10-10T11:25:44.351Z,71.30
2022-10-10T11:28:17.683Z,70.60
2022-10-10T11:30:52.718Z,70.30
2022-10-10T11:33:27.825Z,69.60
2022-10-10T11:36:01.703Z,69.10
2022-10-10T11:38:35.641Z,69.00
2022-10-10T11:41:07.138Z,68.90
2022-10-10T11:43:44.566Z,68.50
2022-10-10T11:46:21.742Z,68.10
2022-10-10T11:48:59.955Z,67.10
2022-10-10T11:51:38.380Z,67.00
2022-10-10T11:54:14.497Z,66.80
2022-10-10T11:56:46.798Z,66.70
2022-10-10T11:59:23.096Z,66.60
2022-10-10T12:01:55.663Z,66.50
2022-10-10T12:04:26.570Z,66.30
2022-10-10T12:07:03.342Z,65.90
2022-10-10T12:09:36.857Z,65.80
2022-10-10T12:12:12.913Z,65.70
2022-10-10T12:14:53.933Z,65.50
2022-10-10T12:17:27.247Z,65.40
2022-10-10T12:19:57.863Z,65.80
2022-10-10T12:22:29.118Z,65.80
2022-10-10T12:25:08.166Z,65.30
2022-10-10T12:27:46.113Z,65.60
2022-10-10T12:30:25.978Z,65.80
2022-10-10T12:32:58.225Z,65.70
2022-10-10T12:35:38.198Z,65.30
2022-10-10T12:38:19.715Z,65.10
2022-10-10T12:41:18.646Z,65.00
2022-10-10T12:43:52.233Z,65.20
2022-10-10T12:46:28.009Z,65.50
2022-10-10T12:49:06.797Z,65.90
2022-10-10T12:51:37.954Z,65.10
2022-10-10T12:54:08.457Z,64.40
2022-10-10T12:56:41.071Z,64.60
2022-10-10T12:59:23.300Z,65.00
2022-10-10T13:01:56.828Z,65.10
2022-10-10T13:04:28.459Z,65.00
2022-10-10T13:07:01.438Z,64.90
2022-10-10T13:09:35.964Z,64.70
2022-10-10T13:12:07.028Z,64.60
2022-10-10T13:14:41.191Z,64.50
2022-10-10T13:17:26.097Z,64.70
2022-10-10T13:19:56.898Z,64.90
2022-10-10T13:22:28.903Z,64.90
2022-10-10T13:24:59.258Z,64.80
2022-10-10T13:27:32.426Z,64.70
2022-10-10T13:30:02.043Z,64.60
2022-10-10T13:32:35.734Z,64.80
2022-10-10T13:35:08.576Z,65.00
2022-10-10T13:37:39.029Z,65.10
2022-10-10T13:40:14.381Z,64.90
2022-10-10T13:42:43.668Z,65.10
2022-10-10T13:45:33.420Z,65.10
2022-10-10T13:48:21.685Z,64.90
2022-10-10T13:51:03.375Z,64.80
2022-10-10T13:53:46.981Z,64.70
2022-10-10T13:56:20.743Z,64.30
2022-10-10T13:58:52.590Z,64.10
2022-10-10T14:01:34.027Z,64.10
2022-10-10T14:04:04.692Z,63.90
2022-10-10T14:06:34.268Z,64.00
2022-10-10T14:09:14.980Z,63.90
2022-10-10T14:11:44.425Z,63.10
2022-10-10T14:14:27.512Z,63.10
2022-10-10T14:17:01.120Z,63.20
2022-10-10T14:19:30.813Z,63.70
2022-10-10T14:22:00.120Z,63.90
2022-10-10T14:24:31.219Z,64.00
2022-10-10T14:27:05.904Z,64.20
2022-10-10T14:29:34.881Z,64.30
2022-10-10T14:32:03.846Z,64.20
2022-10-10T14:34:32.901Z,64.10
2022-10-10T14:37:01.846Z,64.30
2022-10-10T14:39:32.207Z,64.40
2022-10-10T14:42:03.135Z,64.50
2022-10-10T14:44:32.153Z,64.70
2022-10-10T14:47:01.125Z,64.80
2022-10-10T14:49:30.334Z,65.00
2022-10-10T14:51:59.624Z,65.10
2022-10-10T14:54:28.610Z,65.30
2022-10-10T14:57:07.105Z,65.60
2022-10-10T14:59:45.925Z,65.40
2022-10-10T15:02:21.385Z,65.50
2022-10-10T15:04:51.193Z,65.00
2022-10-10T15:07:20.656Z,64.90
2022-10-10T15:12:42.599Z,65.00
2022-10-10T15:15:13.323Z,65.00
2022-10-10T15:17:42.812Z,65.00
2022-10-10T15:20:13.636Z,64.70
2022-10-10T15:22:43.056Z,64.70
2022-10-10T15:25:12.081Z,64.70
2022-10-10T15:27:42.485Z,64.70
2022-10-10T15:30:12.499Z,64.80
2022-10-10T15:32:42.133Z,65.00
2022-10-10T15:35:16.077Z,65.20
2022-10-10T15:37:45.897Z,65.00
2022-10-10T15:40:16.533Z,65.20
2022-10-10T15:42:47.039Z,66.10
2022-10-10T15:45:26.569Z,65.30
2022-10-10T15:48:05.884Z,65.50
2022-10-10T15:50:39.263Z,65.80
2022-10-10T15:53:08.719Z,65.80
2022-10-10T15:55:42.837Z,65.70
2022-10-10T15:58:13.839Z,65.70
2022-10-10T16:00:45.179Z,65.80
2022-10-10T16:03:13.977Z,65.80
2022-10-10T16:05:44.142Z,65.80
2022-10-10T16:08:13.825Z,66.00
2022-10-10T16:10:44.807Z,65.90
2022-10-10T16:13:15.178Z,66.20
2022-10-10T16:15:44.146Z,66.30
2022-10-10T16:18:13.121Z,66.60
2022-10-10T16:20:42.086Z,66.60
2022-10-10T16:23:11.038Z,66.90
2022-10-10T16:25:39.982Z,66.90
2022-10-10T16:28:09.038Z,67.00
2022-10-10T16:30:39.564Z,67.10
2022-10-10T16:33:08.829Z,67.10
2022-10-10T16:35:38.462Z,67.30
2022-10-10T16:38:07.553Z,67.50
2022-10-10T16:40:37.546Z,67.50
2022-10-10T16:43:06.770Z,67.60
2022-10-10T16:45:35.701Z,67.90
2022-10-10T16:48:06.305Z,67.90
2022-10-10T16:50:35.279Z,68.10
2022-10-10T16:53:04.253Z,68.20
2022-10-10T16:55:33.362Z,68.40
2022-10-10T16:58:02.376Z,68.60
2022-10-10T17:00:31.484Z,68.80
2022-10-10T17:03:00.577Z,69.00
2022-10-10T17:05:30.976Z,69.10
2022-10-10T17:08:00.052Z,69.30
2022-10-10T17:10:29.017Z,69.50
2022-10-10T17:12:58.125Z,69.60
2022-10-10T17:15:27.123Z,69.70
2022-10-10T17:17:56.329Z,69.60
2022-10-10T17:20:25.352Z,69.70
2022-10-10T17:22:55.710Z,69.80
2022-10-10T17:25:24.666Z,69.90
2022-10-10T17:27:53.841Z,69.80
2022-10-10T17:30:22.829Z,69.80
2022-10-10T17:32:51.916Z,69.80
2022-10-10T17:35:20.886Z,69.80
2022-10-10T17:37:49.829Z,69.80
2022-10-10T17:40:22.024Z,69.60
2022-10-10T17:42:51.254Z,69.70
2022-10-10T17:45:20.280Z,69.80
2022-10-10T17:47:49.255Z,69.80
2022-10-10T17:50:18.364Z,69.90
2022-10-10T17:52:47.363Z,69.80
2022-10-10T17:55:16.368Z,70.00
2022-10-10T17:57:49.196Z,70.00
2022-10-10T18:00:18.700Z,70.10
2022-10-10T18:02:47.707Z,70.30
2022-10-10T18:05:16.855Z,70.40
2022-10-10T18:07:46.339Z,70.70
2022-10-10T18:10:15.507Z,70.80
2022-10-10T18:12:44.471Z,70.80
2022-10-10T18:15:14.816Z,70.80
2022-10-10T18:17:44.095Z,71.10
2022-10-10T18:20:13.675Z,71.20
2022-10-10T18:22:42.670Z,71.50
2022-10-10T18:25:11.745Z,71.50
2022-10-10T18:27:40.780Z,71.70
2022-10-10T18:30:10.551Z,71.90
2022-10-10T18:32:40.885Z,73.00
2022-10-10T18:35:10.174Z,72.20
2022-10-10T18:37:39.475Z,72.30
2022-10-10T18:40:09.496Z,72.20
2022-10-10T18:42:38.487Z,72.30
2022-10-10T18:45:08.581Z,72.10
2022-10-10T18:47:37.528Z,72.00
2022-10-10T18:50:09.440Z,72.10
2022-10-10T18:52:38.415Z,72.10
2022-10-10T18:55:07.665Z,72.10
2022-10-10T18:57:36.698Z,72.10
2022-10-10T19:00:06.492Z,72.00
2022-10-10T19:02:35.493Z,72.10
2022-10-10T19:05:04.761Z,72.20
2022-10-10T19:07:35.305Z,72.10
2022-10-10T19:10:05.415Z,72.30
2022-10-10T19:12:34.410Z,72.30
2022-10-10T19:15:03.517Z,72.40
2022-10-10T19:17:33.554Z,72.50
2022-10-10T19:20:02.576Z,72.70
2022-10-10T19:22:31.618Z,72.70
2022-10-10T19:25:03.062Z,72.90
2022-10-10T19:27:32.163Z,73.00
2022-10-10T19:30:01.264Z,73.20
2022-10-10T19:32:31.619Z,73.40
2022-10-10T19:35:00.630Z,73.50
2022-10-10T19:37:29.887Z,73.60
2022-10-10T19:39:58.921Z,74.50
2022-10-10T19:42:29.404Z,73.70
2022-10-10T19:44:58.496Z,73.90
2022-10-10T19:47:27.845Z,74.00
2022-10-10T19:49:56.931Z,74.00
2022-10-10T19:52:25.953Z,74.10
2022-10-10T19:54:55.038Z,74.00
2022-10-10T19:57:24.060Z,74.10
2022-10-10T19:59:54.527Z,74.20
2022-10-10T20:02:23.690Z,74.30
2022-10-10T20:04:52.763Z,74.50
2022-10-10T20:07:21.956Z,74.70
2022-10-10T20:09:51.105Z,74.70
2022-10-10T20:12:20.334Z,75.80
2022-10-10T20:14:49.535Z,75.00
2022-10-10T20:17:20.208Z,75.10
2022-10-10T20:19:49.401Z,75.10
2022-10-10T20:22:18.491Z,75.10
2022-10-10T20:24:47.659Z,75.20
2022-10-10T20:27:16.707Z,75.30
2022-10-10T20:29:45.813Z,75.40
2022-10-10T20:32:14.886Z,75.50
2022-10-10T20:34:45.296Z,75.50
2022-10-10T20:37:14.703Z,75.50
2022-10-10T20:39:43.866Z,75.60
2022-10-10T20:42:13.319Z,75.80
2022-10-10T20:44:42.350Z,76.40
2022-10-10T20:47:11.370Z,76.20
2022-10-10T20:49:40.406Z,76.40
2022-10-10T20:52:10.981Z,77.40
2022-10-10T20:54:40.071Z,76.60
2022-10-10T20:57:09.091Z,76.70
2022-10-10T20:59:38.241Z,76.70
2022-10-10T21:02:07.867Z,76.70
2022-10-10T21:04:36.945Z,76.80
2022-10-10T21:07:06.100Z,76.80
2022-10-10T21:09:36.487Z,76.90
2022-10-10T21:12:05.823Z,77.10
2022-10-10T21:14:34.845Z,77.10
2022-10-10T21:17:03.823Z,77.10
2022-10-10T21:19:32.853Z,77.10
2022-10-10T21:22:02.077Z,77.20
2022-10-10T21:24:31.088Z,77.20
2022-10-10T21:27:01.850Z,77.20
2022-10-10T21:29:30.930Z,77.20
2022-10-10T21:32:00.025Z,77.10
2022-10-10T21:34:29.106Z,77.10
2022-10-10T21:36:58.114Z,77.90
2022-10-10T21:39:27.664Z,77.10
2022-10-10T21:41:56.612Z,77.10
2022-10-10T21:44:27.040Z,77.00
2022-10-10T21:46:56.027Z,77.10
2022-10-10T21:49:24.993Z,77.10
2022-10-10T21:51:53.996Z,77.10
2022-10-10T21:54:23.043Z,77.10
2022-10-10T21:56:52.105Z,77.20
2022-10-10T21:59:21.057Z,77.30
2022-10-10T22:01:51.412Z,77.20
2022-10-10T22:04:20.347Z,77.20
2022-10-10T22:06:49.306Z,77.20
2022-10-10T22:09:18.262Z,77.40
2022-10-10T22:11:47.684Z,77.40
2022-10-10T22:14:16.671Z,77.30
2022-10-10T22:16:45.637Z,77.40
2022-10-10T22:19:15.988Z,77.50
2022-10-10T22:21:44.946Z,77.50
2022-10-10T22:24:14.006Z,77.60
2022-10-10T22:26:43.056Z,77.60
2022-10-10T22:29:12.088Z,77.60
2022-10-10T22:31:41.089Z,77.70
2022-10-10T22:34:10.080Z,77.90
2022-10-10T22:36:40.503Z,78.00
2022-10-10T22:39:11.145Z,78.20
2022-10-10T22:41:40.117Z,78.30
2022-10-10T22:44:09.209Z,78.40
2022-10-10T22:46:38.191Z,78.40
2022-10-10T22:49:07.168Z,78.50
2022-10-10T22:51:36.152Z,78.50
2022-10-10T22:54:07.066Z,78.70
2022-10-10T22:56:36.006Z,78.70
2022-10-10T22:59:05.048Z,78.70
2022-10-10T23:01:34.061Z,78.70
2022-10-10T23:04:09.379Z,78.60
2022-10-10T23:06:38.352Z,78.70
2022-10-10T23:09:08.914Z,78.70
2022-10-10T23:11:37.878Z,78.70
2022-10-10T23:14:07.109Z,78.80
2022-10-10T23:16:40.425Z,78.80
2022-10-10T23:19:09.786Z,78.90
2022-10-10T23:21:38.756Z,79.00
2022-10-10T23:24:09.642Z,79.10
2022-10-10T23:26:38.747Z,79.20
2022-10-10T23:29:09.084Z,79.20
2022-10-10T23:31:38.094Z,79.20
2022-10-10T23:34:07.214Z,79.30
2022-10-10T23:36:36.256Z,79.40
2022-10-10T23:39:09.804Z,79.50
2022-10-10T23:41:40.461Z,80.50
2022-10-10T23:44:09.462Z,79.50
2022-10-10T23:46:38.464Z,79.60
2022-10-10T23:49:07.443Z,79.60
2022-10-10T23:51:36.478Z,79.70
2022-10-10T23:54:05.647Z,79.60
2022-10-10T23:56:34.628Z,79.80
2022-10-10T23:59:04.983Z,80.00
